Aeroporto :
LOGIN :

Iscrizione | Disclaimer

   EN    FR    IT 

 










Sommario :    VFR   VFR Marginale   IFR   IFR Intensivo   IFR Molto Intensivo
Visibilità : 
Base nubi : 
>= 8 km
>= 3000ft
5 / 8 km
1000 / 3000 ft
1500m / 5 km
500 / 1000 ft
800 / 1500m
200 / 500 ft
< 800m
< 200 ft
Simboli :   Temporali  Nebbia  Neve Forte  Precipitazioni Forti  Vento > 20 kt
SIGMETs :   Varie  Temporali  Ghiacco  Turbolenza  Onda orograficha  Ceneri Vulcaniche






- Altitudine del aeroporto : 294 ft
- Codice IATA : NAP


LIRN - Naples Capodichino

ULTIMO METAR :
  • 230120Z VRB02KT CAVOK 06/M02 Q1031 NOSIG

METARs OBSOLETI :
  • 230050Z 06003KT CAVOK 07/M02 Q1031 NOSIG
  • 230020Z VRB01KT CAVOK 07/M01 Q1032 NOSIG
  • 222350Z VRB01KT CAVOK 06/00 Q1032 NOSIG
  • 222320Z VRB02KT CAVOK 08/01 Q1032 NOSIG
  • 222250Z 28003KT CAVOK 06/01 Q1032 NOSIG

TAF TAF LIRN
Valido dal 23 a 00 ore il 24 a 00 ore UTC


222300Z 2300/2324 VRB05KT CAVOK
BECMG 2309/2311 28010KT
BECMG 2317/2319 VRB05KT



MetMap, La meteo Aeronautica in un colpo d'occhio ! - Copyright ORBIFLY Dicembre 2007 - Disclaimer

ORBIFLY MET'MAP TEAM :

Programmazione e sviluppo : Alexandra Zaïnal
Concezione : Baudouin d'Aumeries
Aiuto per la programmazione : Marc-Olivier Méhu
Supporto tecnico e logistico : Manuel Goepfert
Aiuto per la traduzione : Arnaldo La Scala

Contatto : metmap@orbifly.com




FONTI E CREDITI :

   NOAA